Airport View

Enter AWOS ICAO identifier for current METAR.

ex. KFNL

KEPH 210053Z AUTO 22009KT 10SM BKN090 23/04 A2995 RMK AO2 RAB05E10 SLP138 P0000 T02330044

21 Sep 2019 01:19

Frequency: 135.775

Phone: 509-754-3761

Other Area AWOS: KMWH - KEAT - KELN - KHMS

TAF KMWH 202339Z 2100/2124 21006KT P6SM SCT070 FM210500 25005KT P6SM SCT250 FM211100 VRB03KT P6SM BKN250 FM212000 19007KT P6SM SKC